DLH493 CYVR-EDDF
Flight info
| Callsign | DLH493 |
|---|---|
| Flight time | N/A |
| Altitude | 35000 |
| Route | JANEK DCT LYTON DCT 51N120W 54N110W/N0474F370 57N100W 5830N09000W 59N080W 59N070W DCT LOPVI/M081F390 DCT SAVRY DCT 59N050W 58N040W 5630N03000W 55N020W DCT DOGAL/N0476F390 DCT BEXET DCT MORAG/N0472F410 DCT NUCHU L607 KONAN UL607 FERDI DCT DENOX DCT REMBA UL607 SPI T180 NIVNU/N0425F230 T847 IMCOM IMCOM1B |
| Aircraft | A343/H-SDE2E3FGHIJ4J5M1RWXY/LB1D1 |
Departure
| Time | N/A |
|---|---|
| Airport | Vancouver International Airport (CYVR) |
Arrival
| Time | 2026-04-16 03:26 |
|---|---|
| Airport | Frankfurt Main Airport (EDDF) |
| Time | Latitude | Longitude | Altitude | Speed | Heading |
|---|---|---|---|---|---|
| 2026-04-16 01:31 | 53.76841 | -12.00963 | 34977 ft | 529 kts | 105° |
| 2026-04-16 01:32 | 53.75312 | -11.88828 | 35333 ft | 524 kts | 105° |
| 2026-04-16 01:32 | 53.74564 | -11.82920 | 35797 ft | 521 kts | 105° |
| 2026-04-16 01:32 | 53.73805 | -11.76949 | 36213 ft | 519 kts | 105° |
| 2026-04-16 01:32 | 53.73045 | -11.71000 | 36643 ft | 517 kts | 106° |
| 2026-04-16 01:33 | 53.72284 | -11.65070 | 37066 ft | 516 kts | 106° |
| 2026-04-16 01:33 | 53.71523 | -11.59165 | 37507 ft | 514 kts | 106° |
| 2026-04-16 01:33 | 53.70760 | -11.53277 | 37946 ft | 512 kts | 106° |
| 2026-04-16 01:33 | 53.69997 | -11.47416 | 38400 ft | 511 kts | 106° |
| 2026-04-16 01:34 | 53.69245 | -11.41657 | 38763 ft | 509 kts | 106° |
| 2026-04-16 01:34 | 53.68481 | -11.35838 | 39124 ft | 507 kts | 106° |
| 2026-04-16 01:34 | 53.67716 | -11.30050 | 39500 ft | 505 kts | 106° |
| 2026-04-16 01:34 | 53.66954 | -11.24294 | 39877 ft | 502 kts | 106° |
| 2026-04-16 01:35 | 53.66191 | -11.18563 | 40248 ft | 500 kts | 106° |
| 2026-04-16 01:35 | 53.65431 | -11.12870 | 40642 ft | 497 kts | 106° |
| 2026-04-16 01:35 | 53.64666 | -11.07169 | 40827 ft | 500 kts | 106° |
| 2026-04-16 01:36 | 53.63116 | -10.95701 | 40948 ft | 511 kts | 106° |
| 2026-04-16 01:36 | 53.61508 | -10.83903 | 40981 ft | 522 kts | 106° |
| 2026-04-16 01:37 | 53.59877 | -10.71982 | 40993 ft | 520 kts | 106° |
| 2026-04-16 01:37 | 53.58257 | -10.60197 | 40993 ft | 513 kts | 106° |
| 2026-04-16 01:38 | 53.56649 | -10.48602 | 40998 ft | 513 kts | 106° |
| 2026-04-16 01:38 | 53.55009 | -10.36891 | 40995 ft | 516 kts | 107° |
| 2026-04-16 01:39 | 53.53352 | -10.25157 | 41011 ft | 516 kts | 107° |
| 2026-04-16 01:39 | 53.51689 | -10.13457 | 41011 ft | 514 kts | 107° |
| 2026-04-16 01:40 | 53.50029 | -10.01863 | 41013 ft | 514 kts | 107° |
| 2026-04-16 01:40 | 53.48343 | -9.90193 | 41018 ft | 515 kts | 107° |
| 2026-04-16 01:41 | 53.46657 | -9.78599 | 41018 ft | 515 kts | 107° |
| 2026-04-16 01:41 | 53.44942 | -9.66892 | 41017 ft | 514 kts | 107° |
| 2026-04-16 01:42 | 53.43234 | -9.55325 | 41013 ft | 514 kts | 107° |
| 2026-04-16 01:42 | 53.41501 | -9.43674 | 41019 ft | 516 kts | 107° |
| 2026-04-16 01:43 | 53.39754 | -9.32008 | 41016 ft | 516 kts | 108° |
| 2026-04-16 01:43 | 53.37999 | -9.20365 | 41015 ft | 515 kts | 108° |
| 2026-04-16 01:44 | 53.36242 | -9.08810 | 41017 ft | 516 kts | 108° |
| 2026-04-16 01:44 | 53.34460 | -8.97178 | 41023 ft | 516 kts | 108° |
| 2026-04-16 01:45 | 53.32665 | -8.85544 | 41026 ft | 516 kts | 108° |
| 2026-04-16 01:45 | 53.30861 | -8.73923 | 41019 ft | 516 kts | 108° |
| 2026-04-16 01:46 | 53.29058 | -8.62401 | 41022 ft | 516 kts | 108° |
| 2026-04-16 01:46 | 53.27231 | -8.50805 | 41027 ft | 516 kts | 108° |
| 2026-04-16 01:47 | 53.25391 | -8.39206 | 41028 ft | 517 kts | 108° |
| 2026-04-16 01:47 | 53.23541 | -8.27625 | 41029 ft | 516 kts | 108° |
| 2026-04-16 01:48 | 53.21692 | -8.16131 | 41029 ft | 516 kts | 108° |
| 2026-04-16 01:48 | 53.19823 | -8.04589 | 41031 ft | 516 kts | 109° |
| 2026-04-16 01:49 | 53.17940 | -7.93037 | 41034 ft | 516 kts | 109° |
| 2026-04-16 01:49 | 53.16044 | -7.81493 | 41046 ft | 516 kts | 109° |
| 2026-04-16 01:50 | 53.14152 | -7.70044 | 41045 ft | 516 kts | 109° |
| 2026-04-16 01:50 | 53.12239 | -7.58543 | 41041 ft | 516 kts | 109° |
| 2026-04-16 01:51 | 53.10312 | -7.47040 | 41041 ft | 516 kts | 109° |
| 2026-04-16 01:51 | 53.08372 | -7.35543 | 41044 ft | 516 kts | 109° |
| 2026-04-16 01:52 | 53.06437 | -7.24143 | 41051 ft | 515 kts | 109° |
| 2026-04-16 01:52 | 53.04480 | -7.12687 | 41051 ft | 515 kts | 109° |
| 2026-04-16 01:53 | 53.02513 | -7.01253 | 41056 ft | 515 kts | 109° |
| 2026-04-16 01:53 | 53.00534 | -6.89827 | 41061 ft | 515 kts | 109° |
| 2026-04-16 01:54 | 52.98562 | -6.78500 | 41065 ft | 514 kts | 109° |
| 2026-04-16 01:54 | 52.96565 | -6.67111 | 41064 ft | 514 kts | 109° |
| 2026-04-16 01:55 | 52.94559 | -6.55737 | 41067 ft | 515 kts | 109° |
| 2026-04-16 01:55 | 52.92536 | -6.44346 | 41079 ft | 516 kts | 110° |
| 2026-04-16 01:56 | 52.90513 | -6.33027 | 41075 ft | 516 kts | 110° |
| 2026-04-16 01:56 | 52.88469 | -6.21650 | 41073 ft | 515 kts | 110° |
| 2026-04-16 01:57 | 52.86413 | -6.10289 | 41084 ft | 515 kts | 110° |
| 2026-04-16 01:57 | 52.84345 | -5.98937 | 41084 ft | 515 kts | 110° |
| 2026-04-16 01:58 | 52.82281 | -5.87673 | 41102 ft | 515 kts | 110° |
| 2026-04-16 01:58 | 52.80196 | -5.76366 | 41109 ft | 514 kts | 110° |
| 2026-04-16 01:59 | 52.78105 | -5.65093 | 41116 ft | 514 kts | 110° |
| 2026-04-16 01:59 | 52.75962 | -5.53929 | 41122 ft | 512 kts | 114° |
| 2026-04-16 02:00 | 52.73034 | -5.43270 | 41127 ft | 509 kts | 120° |
| 2026-04-16 02:00 | 52.69873 | -5.32824 | 41138 ft | 508 kts | 121° |
| 2026-04-16 02:01 | 52.66654 | -5.22451 | 41147 ft | 508 kts | 121° |
| 2026-04-16 02:01 | 52.63458 | -5.12258 | 41150 ft | 509 kts | 121° |
| 2026-04-16 02:02 | 52.60198 | -5.01925 | 41155 ft | 509 kts | 122° |
| 2026-04-16 02:02 | 52.56928 | -4.91607 | 41158 ft | 509 kts | 122° |
| 2026-04-16 02:03 | 52.53646 | -4.81306 | 41168 ft | 509 kts | 122° |
| 2026-04-16 02:03 | 52.50379 | -4.71093 | 41182 ft | 508 kts | 122° |
| 2026-04-16 02:04 | 52.45435 | -4.55720 | 41182 ft | 507 kts | 122° |
| 2026-04-16 02:04 | 52.42132 | -4.45502 | 41186 ft | 507 kts | 122° |
| 2026-04-16 02:05 | 52.38841 | -4.35364 | 41190 ft | 508 kts | 122° |
| 2026-04-16 02:05 | 52.35519 | -4.25169 | 41193 ft | 508 kts | 122° |
| 2026-04-16 02:06 | 52.32186 | -4.14984 | 41200 ft | 507 kts | 122° |
| 2026-04-16 02:06 | 52.28850 | -4.04831 | 41207 ft | 508 kts | 122° |
| 2026-04-16 02:07 | 52.25523 | -3.94751 | 41209 ft | 508 kts | 122° |
| 2026-04-16 02:07 | 52.22164 | -3.84613 | 41217 ft | 508 kts | 122° |
| 2026-04-16 02:08 | 52.18798 | -3.74491 | 41216 ft | 508 kts | 122° |
| 2026-04-16 02:08 | 52.15423 | -3.64382 | 41215 ft | 508 kts | 122° |
| 2026-04-16 02:09 | 52.12058 | -3.54350 | 41216 ft | 509 kts | 123° |
| 2026-04-16 02:09 | 52.08657 | -3.44248 | 41216 ft | 509 kts | 123° |
| 2026-04-16 02:10 | 52.05247 | -3.34164 | 41220 ft | 509 kts | 123° |
| 2026-04-16 02:10 | 52.01825 | -3.24082 | 41219 ft | 509 kts | 123° |
| 2026-04-16 02:11 | 51.98396 | -3.14031 | 41203 ft | 509 kts | 123° |
| 2026-04-16 02:11 | 51.94986 | -3.04064 | 41179 ft | 508 kts | 123° |
| 2026-04-16 02:12 | 51.91546 | -2.94060 | 41166 ft | 508 kts | 123° |
| 2026-04-16 02:12 | 51.88095 | -2.84063 | 41161 ft | 509 kts | 123° |
| 2026-04-16 02:13 | 51.84655 | -2.74138 | 41164 ft | 509 kts | 123° |
| 2026-04-16 02:13 | 51.81188 | -2.64168 | 41181 ft | 509 kts | 123° |
| 2026-04-16 02:14 | 51.77715 | -2.54223 | 41204 ft | 508 kts | 123° |
| 2026-04-16 02:14 | 51.74234 | -2.44295 | 41231 ft | 508 kts | 123° |
| 2026-04-16 02:15 | 51.70767 | -2.34445 | 41262 ft | 509 kts | 123° |
| 2026-04-16 02:15 | 51.67263 | -2.24528 | 41267 ft | 509 kts | 124° |
| 2026-04-16 02:16 | 51.63756 | -2.14645 | 41274 ft | 508 kts | 124° |
| 2026-04-16 02:16 | 51.60243 | -2.04780 | 41275 ft | 508 kts | 124° |
| 2026-04-16 02:17 | 51.56745 | -1.94997 | 41276 ft | 508 kts | 124° |
| 2026-04-16 02:17 | 51.53208 | -1.85147 | 41279 ft | 509 kts | 124° |
| 2026-04-16 02:18 | 51.49664 | -1.75315 | 41279 ft | 508 kts | 124° |
| 2026-04-16 02:18 | 51.46787 | -1.65005 | 41281 ft | 515 kts | 110° |
| 2026-04-16 02:19 | 51.44942 | -1.53891 | 41283 ft | 517 kts | 105° |
| 2026-04-16 02:19 | 51.43380 | -1.42629 | 41297 ft | 518 kts | 104° |
| 2026-04-16 02:20 | 51.41876 | -1.31361 | 41292 ft | 517 kts | 104° |
| 2026-04-16 02:20 | 51.40382 | -1.20185 | 41305 ft | 517 kts | 103° |
| 2026-04-16 02:21 | 51.39440 | -1.08757 | 41314 ft | 519 kts | 97° |
| 2026-04-16 02:21 | 51.38768 | -0.97259 | 41321 ft | 519 kts | 96° |
| 2026-04-16 02:22 | 51.38150 | -0.85759 | 41328 ft | 518 kts | 96° |
| 2026-04-16 02:22 | 51.37546 | -0.74359 | 41327 ft | 517 kts | 96° |
| 2026-04-16 02:23 | 51.36930 | -0.62900 | 41327 ft | 517 kts | 96° |
| 2026-04-16 02:23 | 51.36302 | -0.51453 | 41319 ft | 517 kts | 96° |
| 2026-04-16 02:24 | 51.35660 | -0.40004 | 41324 ft | 516 kts | 96° |
| 2026-04-16 02:24 | 51.35006 | -0.28571 | 41325 ft | 515 kts | 97° |
| 2026-04-16 02:25 | 51.34345 | -0.17246 | 41324 ft | 515 kts | 97° |
| 2026-04-16 02:25 | 51.33665 | -0.05846 | 41323 ft | 515 kts | 97° |
| 2026-04-16 02:26 | 51.32850 | 0.05532 | 41323 ft | 515 kts | 99° |
| 2026-04-16 02:26 | 51.31852 | 0.16853 | 41324 ft | 513 kts | 100° |
| 2026-04-16 02:27 | 51.30808 | 0.28059 | 41332 ft | 513 kts | 100° |
| 2026-04-16 02:27 | 51.30274 | 0.33681 | 40943 ft | 513 kts | 100° |
| 2026-04-16 02:27 | 51.29734 | 0.39318 | 40912 ft | 513 kts | 100° |
| 2026-04-16 02:28 | 51.28644 | 0.50577 | 40909 ft | 513 kts | 101° |
| 2026-04-16 02:28 | 51.27730 | 0.59924 | 40961 ft | 513 kts | 101° |
| 2026-04-16 02:29 | 51.26440 | 0.72983 | 41077 ft | 512 kts | 101° |
| 2026-04-16 02:29 | 51.25321 | 0.84184 | 41190 ft | 511 kts | 101° |
| 2026-04-16 02:30 | 51.24757 | 0.89790 | 41364 ft | 511 kts | 101° |
| 2026-04-16 02:30 | 51.24383 | 0.93492 | 41363 ft | 511 kts | 101° |
| 2026-04-16 02:30 | 51.23242 | 1.04700 | 41370 ft | 511 kts | 101° |
| 2026-04-16 02:31 | 51.21907 | 1.17697 | 41370 ft | 511 kts | 101° |
| 2026-04-16 02:31 | 51.20747 | 1.28862 | 41371 ft | 510 kts | 101° |
| 2026-04-16 02:32 | 51.19775 | 1.38136 | 41371 ft | 510 kts | 101° |
| 2026-04-16 02:32 | 51.18595 | 1.49294 | 41376 ft | 511 kts | 101° |
| 2026-04-16 02:33 | 51.17211 | 1.62252 | 41378 ft | 510 kts | 101° |
| 2026-04-16 02:33 | 51.16212 | 1.71502 | 41374 ft | 509 kts | 101° |
| 2026-04-16 02:34 | 51.15002 | 1.82615 | 41380 ft | 509 kts | 102° |
| 2026-04-16 02:34 | 51.13599 | 1.95528 | 41376 ft | 510 kts | 100° |
| 2026-04-16 02:35 | 51.12770 | 2.06741 | 41378 ft | 510 kts | 97° |
| 2026-04-16 02:35 | 51.12114 | 2.17981 | 41377 ft | 510 kts | 96° |
| 2026-04-16 02:36 | 51.11601 | 2.27315 | 41379 ft | 509 kts | 96° |
| 2026-04-16 02:36 | 51.10887 | 2.40367 | 41379 ft | 510 kts | 96° |
| 2026-04-16 02:37 | 51.10260 | 2.51597 | 41378 ft | 510 kts | 96° |
| 2026-04-16 02:37 | 51.09682 | 2.60922 | 41378 ft | 508 kts | 100° |
| 2026-04-16 02:38 | 51.08137 | 2.71855 | 41376 ft | 506 kts | 107° |
| 2026-04-16 02:38 | 51.05980 | 2.84395 | 41377 ft | 506 kts | 108° |
| 2026-04-16 02:39 | 51.04041 | 2.95157 | 41379 ft | 506 kts | 108° |
| 2026-04-16 02:39 | 51.02076 | 3.05892 | 41384 ft | 506 kts | 108° |
| 2026-04-16 02:40 | 51.00431 | 3.14804 | 41387 ft | 505 kts | 109° |
| 2026-04-16 02:40 | 50.98446 | 3.25498 | 41391 ft | 506 kts | 109° |
| 2026-04-16 02:41 | 50.96461 | 3.36136 | 41397 ft | 506 kts | 109° |
| 2026-04-16 02:41 | 50.94451 | 3.46841 | 41395 ft | 506 kts | 109° |
| 2026-04-16 02:42 | 50.92436 | 3.57529 | 41395 ft | 506 kts | 108° |
| 2026-04-16 02:42 | 50.90976 | 3.68457 | 41395 ft | 508 kts | 101° |
| 2026-04-16 02:43 | 50.89913 | 3.79539 | 41402 ft | 509 kts | 99° |
| 2026-04-16 02:43 | 50.88962 | 3.90570 | 41404 ft | 509 kts | 99° |
| 2026-04-16 02:44 | 50.87768 | 4.01578 | 41404 ft | 505 kts | 108° |
| 2026-04-16 02:44 | 50.85558 | 4.12123 | 41406 ft | 505 kts | 112° |
| 2026-04-16 02:45 | 50.83134 | 4.22545 | 41407 ft | 505 kts | 113° |
| 2026-04-16 02:45 | 50.80656 | 4.32852 | 41404 ft | 504 kts | 113° |
| 2026-04-16 02:46 | 50.78140 | 4.43182 | 41406 ft | 503 kts | 113° |
| 2026-04-16 02:46 | 50.75612 | 4.53491 | 41406 ft | 503 kts | 114° |
| 2026-04-16 02:47 | 50.73091 | 4.63725 | 41408 ft | 504 kts | 114° |
| 2026-04-16 02:47 | 50.70542 | 4.74028 | 41412 ft | 504 kts | 114° |
| 2026-04-16 02:48 | 50.67987 | 4.84310 | 41409 ft | 503 kts | 114° |
| 2026-04-16 02:48 | 50.65606 | 4.94681 | 41412 ft | 503 kts | 111° |
| 2026-04-16 02:49 | 50.63392 | 5.05159 | 41410 ft | 504 kts | 110° |
| 2026-04-16 02:49 | 50.61231 | 5.15587 | 41407 ft | 504 kts | 110° |
| 2026-04-16 02:50 | 50.59062 | 5.26076 | 41406 ft | 504 kts | 110° |
| 2026-04-16 02:50 | 50.56887 | 5.36550 | 41406 ft | 503 kts | 110° |
| 2026-04-16 02:51 | 50.54709 | 5.46987 | 41467 ft | 499 kts | 110° |
| 2026-04-16 02:51 | 50.53629 | 5.52139 | 41273 ft | 496 kts | 110° |
| 2026-04-16 02:51 | 50.52564 | 5.57217 | 40851 ft | 496 kts | 110° |
| 2026-04-16 02:52 | 50.51527 | 5.62391 | 40356 ft | 496 kts | 109° |
| 2026-04-16 02:52 | 50.50524 | 5.67578 | 39750 ft | 497 kts | 109° |
| 2026-04-16 02:52 | 50.49535 | 5.72782 | 39159 ft | 497 kts | 109° |
| 2026-04-16 02:52 | 50.48555 | 5.77985 | 38491 ft | 497 kts | 109° |
| 2026-04-16 02:53 | 50.47576 | 5.83192 | 37702 ft | 498 kts | 109° |
| 2026-04-16 02:53 | 50.46608 | 5.88340 | 36908 ft | 499 kts | 109° |
| 2026-04-16 02:53 | 50.45625 | 5.93561 | 36110 ft | 500 kts | 109° |
| 2026-04-16 02:53 | 50.44626 | 5.98850 | 35807 ft | 511 kts | 109° |
| 2026-04-16 02:54 | 50.43609 | 6.04213 | 35618 ft | 514 kts | 109° |
| 2026-04-16 02:54 | 50.42590 | 6.09580 | 35507 ft | 511 kts | 109° |
| 2026-04-16 02:54 | 50.40571 | 6.20187 | 35444 ft | 506 kts | 109° |
| 2026-04-16 02:55 | 50.38535 | 6.30784 | 35429 ft | 509 kts | 109° |
| 2026-04-16 02:55 | 50.36652 | 6.41402 | 35421 ft | 511 kts | 104° |
| 2026-04-16 02:56 | 50.35602 | 6.52411 | 35423 ft | 512 kts | 98° |
| 2026-04-16 02:56 | 50.34929 | 6.63507 | 35413 ft | 512 kts | 96° |
| 2026-04-16 02:57 | 50.34330 | 6.74497 | 35072 ft | 504 kts | 96° |
| 2026-04-16 02:57 | 50.34013 | 6.79884 | 34533 ft | 504 kts | 97° |
| 2026-04-16 02:57 | 50.33361 | 6.85245 | 33763 ft | 501 kts | 108° |
| 2026-04-16 02:58 | 50.32261 | 6.90394 | 33025 ft | 497 kts | 113° |
| 2026-04-16 02:58 | 50.30970 | 6.95372 | 32400 ft | 490 kts | 116° |
| 2026-04-16 02:58 | 50.29587 | 7.00220 | 31746 ft | 486 kts | 117° |
| 2026-04-16 02:58 | 50.28170 | 7.04981 | 31118 ft | 481 kts | 118° |
| 2026-04-16 02:59 | 50.26740 | 7.09681 | 30513 ft | 477 kts | 118° |
| 2026-04-16 02:59 | 50.25316 | 7.14312 | 30296 ft | 464 kts | 118° |
| 2026-04-16 02:59 | 50.23962 | 7.18720 | 29991 ft | 453 kts | 118° |
| 2026-04-16 02:59 | 50.22603 | 7.23136 | 29373 ft | 450 kts | 118° |
| 2026-04-16 03:00 | 50.21261 | 7.27522 | 28811 ft | 446 kts | 117° |
| 2026-04-16 03:00 | 50.20018 | 7.31951 | 28265 ft | 444 kts | 115° |
| 2026-04-16 03:00 | 50.18857 | 7.36401 | 27714 ft | 441 kts | 114° |
| 2026-04-16 03:00 | 50.17743 | 7.40844 | 27204 ft | 439 kts | 113° |
| 2026-04-16 03:01 | 50.16657 | 7.45274 | 26725 ft | 436 kts | 112° |
| 2026-04-16 03:01 | 50.15594 | 7.49676 | 26281 ft | 433 kts | 112° |
| 2026-04-16 03:01 | 50.14559 | 7.54000 | 25842 ft | 430 kts | 112° |
| 2026-04-16 03:01 | 50.13520 | 7.58355 | 25391 ft | 427 kts | 112° |
| 2026-04-16 03:02 | 50.12485 | 7.62683 | 24936 ft | 425 kts | 113° |
| 2026-04-16 03:02 | 50.11221 | 7.66814 | 24500 ft | 421 kts | 121° |
| 2026-04-16 03:02 | 50.09765 | 7.70752 | 24066 ft | 418 kts | 123° |
| 2026-04-16 03:02 | 50.08237 | 7.74574 | 23624 ft | 415 kts | 125° |
| 2026-04-16 03:03 | 50.06673 | 7.78321 | 23194 ft | 411 kts | 126° |
| 2026-04-16 03:03 | 50.05092 | 7.81995 | 22775 ft | 406 kts | 127° |
| 2026-04-16 03:03 | 50.03506 | 7.85605 | 22373 ft | 403 kts | 127° |
| 2026-04-16 03:03 | 50.01941 | 7.89123 | 21951 ft | 399 kts | 128° |
| 2026-04-16 03:04 | 50.00414 | 7.92708 | 21557 ft | 396 kts | 125° |
| 2026-04-16 03:04 | 49.98973 | 7.96334 | 21146 ft | 393 kts | 124° |
| 2026-04-16 03:04 | 49.97579 | 7.99980 | 20743 ft | 391 kts | 123° |
| 2026-04-16 03:04 | 49.96278 | 8.03464 | 20351 ft | 388 kts | 122° |
| 2026-04-16 03:05 | 49.94944 | 8.07095 | 19971 ft | 385 kts | 122° |
| 2026-04-16 03:05 | 49.93635 | 8.10695 | 19579 ft | 382 kts | 122° |
| 2026-04-16 03:05 | 49.92362 | 8.14217 | 19209 ft | 379 kts | 122° |
| 2026-04-16 03:05 | 49.91079 | 8.17774 | 18816 ft | 376 kts | 122° |
| 2026-04-16 03:06 | 49.89808 | 8.21303 | 18421 ft | 373 kts | 122° |
| 2026-04-16 03:06 | 49.88804 | 8.24997 | 17949 ft | 375 kts | 105° |
| 2026-04-16 03:06 | 49.89169 | 8.32938 | 17174 ft | 375 kts | 74° |
| 2026-04-16 03:07 | 49.89912 | 8.36860 | 17196 ft | 380 kts | 71° |
| 2026-04-16 03:07 | 49.90747 | 8.40732 | 17176 ft | 377 kts | 70° |
| 2026-04-16 03:07 | 49.91624 | 8.44490 | 17173 ft | 374 kts | 68° |
| 2026-04-16 03:07 | 49.92544 | 8.48258 | 17152 ft | 373 kts | 68° |
| 2026-04-16 03:08 | 49.93471 | 8.52027 | 17135 ft | 374 kts | 68° |
| 2026-04-16 03:08 | 49.94395 | 8.55799 | 17100 ft | 374 kts | 68° |
| 2026-04-16 03:08 | 49.95316 | 8.59581 | 17061 ft | 374 kts | 68° |
| 2026-04-16 03:08 | 49.96230 | 8.63361 | 17013 ft | 373 kts | 68° |
| 2026-04-16 03:09 | 49.97138 | 8.67137 | 16978 ft | 373 kts | 69° |
| 2026-04-16 03:09 | 49.98028 | 8.70861 | 16923 ft | 372 kts | 69° |
| 2026-04-16 03:09 | 49.98925 | 8.74633 | 16851 ft | 372 kts | 69° |
| 2026-04-16 03:09 | 49.99818 | 8.78407 | 16775 ft | 372 kts | 69° |
| 2026-04-16 03:10 | 50.00707 | 8.82169 | 16705 ft | 370 kts | 69° |
| 2026-04-16 03:10 | 50.01593 | 8.85925 | 16611 ft | 370 kts | 69° |
| 2026-04-16 03:10 | 50.02478 | 8.89676 | 16509 ft | 369 kts | 69° |
| 2026-04-16 03:10 | 50.03362 | 8.93420 | 16397 ft | 368 kts | 69° |
| 2026-04-16 03:11 | 50.04242 | 8.97153 | 16287 ft | 368 kts | 69° |
| 2026-04-16 03:11 | 50.05108 | 9.00831 | 16169 ft | 367 kts | 69° |
| 2026-04-16 03:11 | 50.05981 | 9.04549 | 16037 ft | 365 kts | 69° |
| 2026-04-16 03:11 | 50.06851 | 9.08263 | 15898 ft | 365 kts | 69° |
| 2026-04-16 03:12 | 50.07714 | 9.11964 | 15732 ft | 363 kts | 69° |
| 2026-04-16 03:12 | 50.08574 | 9.15654 | 15570 ft | 362 kts | 69° |
| 2026-04-16 03:12 | 50.09430 | 9.19335 | 15384 ft | 361 kts | 69° |
| 2026-04-16 03:12 | 50.10277 | 9.22989 | 15289 ft | 355 kts | 69° |
| 2026-04-16 03:13 | 50.11099 | 9.26543 | 14931 ft | 352 kts | 69° |
| 2026-04-16 03:13 | 50.11925 | 9.30117 | 14512 ft | 350 kts | 69° |
| 2026-04-16 03:13 | 50.12745 | 9.33670 | 14094 ft | 347 kts | 69° |
| 2026-04-16 03:13 | 50.13556 | 9.37187 | 13646 ft | 343 kts | 69° |
| 2026-04-16 03:14 | 50.14380 | 9.40664 | 13203 ft | 339 kts | 65° |
| 2026-04-16 03:14 | 50.15664 | 9.43546 | 13199 ft | 311 kts | 42° |
| 2026-04-16 03:14 | 50.17454 | 9.45224 | 13097 ft | 289 kts | 14° |
| 2026-04-16 03:14 | 50.19331 | 9.45452 | 13229 ft | 257 kts | 345° |
| 2026-04-16 03:15 | 50.20833 | 9.44382 | 13201 ft | 234 kts | 316° |
| 2026-04-16 03:15 | 50.21743 | 9.42369 | 12836 ft | 228 kts | 285° |
| 2026-04-16 03:15 | 50.21816 | 9.39932 | 12491 ft | 226 kts | 262° |
| 2026-04-16 03:15 | 50.21573 | 9.37512 | 12142 ft | 226 kts | 261° |
| 2026-04-16 03:16 | 50.21345 | 9.35084 | 11841 ft | 226 kts | 262° |
| 2026-04-16 03:16 | 50.21086 | 9.32667 | 11519 ft | 225 kts | 259° |
| 2026-04-16 03:16 | 50.20721 | 9.30288 | 11228 ft | 225 kts | 256° |
| 2026-04-16 03:16 | 50.20273 | 9.27949 | 10938 ft | 225 kts | 253° |
| 2026-04-16 03:17 | 50.19780 | 9.25668 | 10645 ft | 225 kts | 252° |
| 2026-04-16 03:17 | 50.19250 | 9.23373 | 10370 ft | 225 kts | 251° |
| 2026-04-16 03:17 | 50.18712 | 9.21089 | 10082 ft | 224 kts | 251° |
| 2026-04-16 03:17 | 50.18171 | 9.18812 | 9787 ft | 223 kts | 251° |
| 2026-04-16 03:18 | 50.17633 | 9.16540 | 9517 ft | 224 kts | 251° |
| 2026-04-16 03:18 | 50.17086 | 9.14201 | 9080 ft | 230 kts | 251° |
| 2026-04-16 03:18 | 50.16557 | 9.11933 | 8684 ft | 222 kts | 251° |
| 2026-04-16 03:18 | 50.16034 | 9.09689 | 8293 ft | 220 kts | 251° |
| 2026-04-16 03:19 | 50.15510 | 9.07433 | 7800 ft | 222 kts | 251° |
| 2026-04-16 03:19 | 50.14986 | 9.05181 | 7315 ft | 220 kts | 251° |
| 2026-04-16 03:19 | 50.14466 | 9.02954 | 6830 ft | 217 kts | 251° |
| 2026-04-16 03:19 | 50.13948 | 9.00730 | 6201 ft | 219 kts | 251° |
| 2026-04-16 03:20 | 50.13425 | 8.98496 | 5576 ft | 220 kts | 250° |
| 2026-04-16 03:20 | 50.12900 | 8.96259 | 4959 ft | 220 kts | 250° |
| 2026-04-16 03:20 | 50.12386 | 8.94066 | 4598 ft | 208 kts | 250° |
| 2026-04-16 03:20 | 50.11910 | 8.92047 | 4445 ft | 197 kts | 251° |
| 2026-04-16 03:21 | 50.11447 | 8.89976 | 4414 ft | 208 kts | 251° |
| 2026-04-16 03:21 | 50.10972 | 8.87837 | 4379 ft | 209 kts | 251° |
| 2026-04-16 03:21 | 50.10482 | 8.85698 | 4222 ft | 211 kts | 250° |
| 2026-04-16 03:21 | 50.09966 | 8.83557 | 3991 ft | 211 kts | 250° |
| 2026-04-16 03:22 | 50.09458 | 8.81455 | 3737 ft | 203 kts | 250° |
| 2026-04-16 03:22 | 50.08992 | 8.79511 | 3446 ft | 185 kts | 250° |
| 2026-04-16 03:22 | 50.08563 | 8.77722 | 3206 ft | 167 kts | 250° |
| 2026-04-16 03:22 | 50.08167 | 8.76064 | 2973 ft | 162 kts | 251° |
| 2026-04-16 03:23 | 50.07776 | 8.74425 | 2767 ft | 160 kts | 251° |
| 2026-04-16 03:23 | 50.07407 | 8.72882 | 2534 ft | 143 kts | 251° |
| 2026-04-16 03:23 | 50.07071 | 8.71473 | 2324 ft | 137 kts | 251° |
| 2026-04-16 03:23 | 50.06739 | 8.70072 | 2137 ft | 139 kts | 251° |
| 2026-04-16 03:24 | 50.06405 | 8.68681 | 1940 ft | 140 kts | 250° |
| 2026-04-16 03:24 | 50.06069 | 8.67269 | 1751 ft | 138 kts | 250° |
| 2026-04-16 03:24 | 50.05738 | 8.65872 | 1542 ft | 138 kts | 250° |
| 2026-04-16 03:24 | 50.05401 | 8.64458 | 1275 ft | 139 kts | 250° |
| 2026-04-16 03:25 | 50.05073 | 8.63056 | 1024 ft | 140 kts | 250° |
| 2026-04-16 03:25 | 50.04732 | 8.61641 | 791 ft | 139 kts | 248° |
| 2026-04-16 03:25 | 50.04379 | 8.60218 | 604 ft | 143 kts | 249° |
| 2026-04-16 03:25 | 50.04037 | 8.58777 | 422 ft | 140 kts | 249° |
| 2026-04-16 03:26 | 50.03718 | 8.57456 | 368 ft | 115 kts | 250° |
| 2026-04-16 03:26 | 50.03535 | 8.56687 | 363 ft | 48 kts | 249° |
| 2026-04-16 03:26 | 50.03432 | 8.56251 | 365 ft | 33 kts | 254° |
| 2026-04-16 03:26 | 50.03446 | 8.55969 | 366 ft | 23 kts | 279° |
| 2026-04-16 03:27 | 50.03471 | 8.55759 | 365 ft | 15 kts | 281° |
| 2026-04-16 03:27 | 50.03507 | 8.55706 | 368 ft | 3 kts | 352° |
| 2026-04-16 03:27 | 50.03555 | 8.55759 | 366 ft | 14 kts | 51° |
| 2026-04-16 03:27 | 50.03607 | 8.55954 | 366 ft | 24 kts | 69° |
| 2026-04-16 03:28 | 50.03666 | 8.56201 | 367 ft | 25 kts | 69° |
| 2026-04-16 03:28 | 50.03728 | 8.56457 | 368 ft | 26 kts | 69° |
| 2026-04-16 03:28 | 50.03791 | 8.56721 | 367 ft | 26 kts | 70° |
| 2026-04-16 03:28 | 50.03855 | 8.56993 | 369 ft | 27 kts | 70° |
| 2026-04-16 03:29 | 50.03915 | 8.57245 | 366 ft | 25 kts | 70° |
| 2026-04-16 03:29 | 50.03976 | 8.57503 | 366 ft | 26 kts | 70° |
| 2026-04-16 03:29 | 50.04038 | 8.57758 | 371 ft | 18 kts | 69° |
| 2026-04-16 03:29 | 50.04099 | 8.57824 | 368 ft | 10 kts | 356° |
| 2026-04-16 03:30 | 50.04173 | 8.57780 | 367 ft | 13 kts | 339° |
| 2026-04-16 03:30 | 50.04270 | 8.57723 | 368 ft | 16 kts | 340° |
| 2026-04-16 03:30 | 50.04380 | 8.57658 | 369 ft | 17 kts | 335° |
| 2026-04-16 03:30 | 50.04424 | 8.57529 | 364 ft | 15 kts | 265° |
| 2026-04-16 03:31 | 50.04388 | 8.57373 | 368 ft | 16 kts | 249° |
| 2026-04-16 03:31 | 50.04347 | 8.57205 | 368 ft | 17 kts | 249° |
| 2026-04-16 03:31 | 50.04303 | 8.57024 | 368 ft | 18 kts | 249° |
| 2026-04-16 03:31 | 50.04279 | 8.56858 | 364 ft | 11 kts | 285° |
| 2026-04-16 03:32 | 50.04317 | 8.56822 | 370 ft | 7 kts | 355° |
| 2026-04-16 03:32 | 50.04386 | 8.56838 | 369 ft | 12 kts | 10° |
| 2026-04-16 03:34 | 50.04701 | 8.56847 | 368 ft | 1 kts | 295° |